createdAt,value
2018-11-01T00:00:27.140Z,-58
2018-11-01T00:01:25.215Z,-58
2018-11-01T00:02:24.349Z,-57
2018-11-01T00:03:22.381Z,-57
2018-11-01T00:04:24.485Z,-57
2018-11-01T00:05:28.269Z,-56
2018-11-01T00:06:26.774Z,-56
2018-11-01T00:07:29.027Z,-56
2018-11-01T00:08:29.073Z,-56
2018-11-01T00:09:29.748Z,-56
2018-11-01T00:10:30.671Z,-56
2018-11-01T00:11:27.733Z,-56
2018-11-01T00:12:26.816Z,-57
2018-11-01T00:13:35.894Z,-57
2018-11-01T00:14:34.520Z,-57
2018-11-01T00:15:36.435Z,-58
2018-11-01T00:16:35.986Z,-58
2018-11-01T00:17:40.380Z,-58
2018-11-01T00:18:38.983Z,-60
2018-11-01T00:19:41.427Z,-60
2018-11-01T00:20:42.947Z,-60
2018-11-01T00:21:56.288Z,-61
2018-11-01T00:22:54.227Z,-60
2018-11-01T00:23:51.340Z,-60
2018-11-01T00:24:50.797Z,-60
2018-11-01T00:25:52.193Z,-59
2018-11-01T00:26:52.436Z,-60
2018-11-01T00:27:49.784Z,-60
2018-11-01T00:28:48.260Z,-60
2018-11-01T00:29:47.742Z,-61
2018-11-01T00:30:46.572Z,-61
2018-11-01T00:34:46.352Z,-60
2018-11-01T00:35:45.686Z,-59
2018-11-01T00:36:42.108Z,-60
2018-11-01T00:37:42.350Z,-58
2018-11-01T00:38:40.990Z,-60
2018-11-01T00:39:48.966Z,-60
2018-11-01T00:40:50.262Z,-58
2018-11-01T00:41:50.105Z,-60
2018-11-01T00:42:48.598Z,-58
2018-11-01T00:43:46.781Z,-59
2018-11-01T00:44:47.528Z,-59
2018-11-01T00:45:48.250Z,-60
2018-11-01T00:46:46.383Z,-59
2018-11-01T00:47:47.064Z,-57
2018-11-01T00:51:26.118Z,-59
2018-11-01T00:52:23.295Z,-60
2018-11-01T00:53:20.369Z,-60
2018-11-01T00:54:17.692Z,-60
2018-11-01T00:55:17.901Z,-60
2018-11-01T00:56:18.169Z,-60
2018-11-01T00:57:24.221Z,-61
2018-11-01T00:59:43.624Z,-60
2018-11-01T01:00:49.072Z,-58
2018-11-01T01:01:51.369Z,-57
2018-11-01T01:03:04.410Z,-57
2018-11-01T01:04:02.765Z,-58
2018-11-01T01:05:08.292Z,-56
2018-11-01T01:07:28.884Z,-56
2018-11-01T01:08:32.477Z,-56
2018-11-01T01:09:34.358Z,-56
2018-11-01T01:10:33.662Z,-56
2018-11-01T01:13:01.584Z,-57
2018-11-01T01:13:59.790Z,-58
2018-11-01T01:14:58.223Z,-59
2018-11-01T01:17:21.991Z,-59
2018-11-01T01:18:21.253Z,-59
2018-11-01T01:19:18.753Z,-58
2018-11-01T01:20:16.830Z,-58
2018-11-01T01:21:18.532Z,-63
2018-11-01T01:22:15.735Z,-62
2018-11-01T01:23:15.272Z,-62
2018-11-01T01:24:13.651Z,-62
2018-11-01T01:25:18.857Z,-61
2018-11-01T01:26:20.889Z,-63
2018-11-01T01:27:27.452Z,-63
2018-11-01T01:28:28.251Z,-66
2018-11-01T01:30:55.940Z,-60
2018-11-01T01:31:58.782Z,-58
2018-11-01T01:33:03.733Z,-57
2018-11-01T01:35:22.169Z,-65
2018-11-01T01:36:20.851Z,-64
2018-11-01T01:37:18.955Z,-63
2018-11-01T01:39:45.522Z,-60
2018-11-01T01:40:46.426Z,-59
2018-11-01T01:41:44.584Z,-60
2018-11-01T01:42:47.313Z,-59
2018-11-01T01:43:46.200Z,-58
2018-11-01T01:46:08.720Z,-57
2018-11-01T01:47:06.885Z,-57
2018-11-01T01:48:06.603Z,-57
2018-11-01T01:49:07.244Z,-57
2018-11-01T01:53:16.036Z,-58
2018-11-01T01:55:48.277Z,-60
2018-11-01T01:56:49.481Z,-59
2018-11-01T01:59:05.097Z,-58
2018-11-01T02:00:01.661Z,-57
2018-11-01T02:01:00.589Z,-58
2018-11-01T02:03:24.270Z,-59
2018-11-01T02:04:29.299Z,-58
2018-11-01T02:05:28.325Z,-56
2018-11-01T02:06:25.610Z,-56
2018-11-01T02:07:23.510Z,-56
2018-11-01T02:08:20.425Z,-55
2018-11-01T02:09:28.059Z,-56
2018-11-01T02:10:28.718Z,-56
2018-11-01T02:11:27.410Z,-56
2018-11-01T02:12:26.010Z,-56
2018-11-01T02:13:28.508Z,-57
2018-11-01T02:14:29.124Z,-56
2018-11-01T02:15:28.103Z,-58
2018-11-01T02:16:27.142Z,-58
2018-11-01T02:17:25.443Z,-59
2018-11-01T02:18:23.136Z,-59
2018-11-01T02:19:21.248Z,-59
2018-11-01T02:20:19.405Z,-58
2018-11-01T02:22:49.407Z,-61
2018-11-01T02:23:48.783Z,-61
2018-11-01T02:24:45.982Z,-61
2018-11-01T02:27:05.123Z,-61
2018-11-01T02:28:10.557Z,-59
2018-11-01T02:29:08.031Z,-60
2018-11-01T02:30:07.044Z,-59
2018-11-01T02:31:06.356Z,-58
2018-11-01T02:33:33.403Z,-63
2018-11-01T02:34:40.445Z,-63
2018-11-01T02:35:43.742Z,-61
2018-11-01T02:36:42.734Z,-61
2018-11-01T02:37:43.407Z,-58
2018-11-01T02:38:46.084Z,-61
2018-11-01T02:41:33.938Z,-61
2018-11-01T02:42:35.119Z,-60
2018-11-01T02:43:33.475Z,-62
2018-11-01T02:44:32.882Z,-62
2018-11-01T02:45:32.774Z,-63
2018-11-01T02:46:30.033Z,-62
2018-11-01T02:47:27.826Z,-61
2018-11-01T02:48:29.744Z,-61
2018-11-01T02:49:34.740Z,-60
2018-11-01T02:53:24.445Z,-60
2018-11-01T02:54:24.551Z,-60
2018-11-01T02:55:22.461Z,-60
2018-11-01T02:56:19.778Z,-60
2018-11-01T02:57:25.478Z,-60
2018-11-01T02:58:23.411Z,-59
2018-11-01T02:59:21.788Z,-58
2018-11-01T03:00:25.733Z,-59
2018-11-01T03:01:27.233Z,-57
2018-11-01T03:02:27.861Z,-58
2018-11-01T03:03:25.214Z,-57
2018-11-01T03:04:26.139Z,-57
2018-11-01T03:05:22.570Z,-57
2018-11-01T03:06:22.762Z,-57
2018-11-01T03:07:22.769Z,-56
2018-11-01T03:08:22.114Z,-57
2018-11-01T03:09:19.977Z,-56
2018-11-01T03:10:17.872Z,-57
2018-11-01T03:11:18.264Z,-56
2018-11-01T03:12:16.626Z,-57
2018-11-01T03:13:19.134Z,-56
2018-11-01T03:14:16.758Z,-57
2018-11-01T03:16:36.585Z,-57
2018-11-01T03:17:37.722Z,-58
2018-11-01T03:18:35.805Z,-59
2018-11-01T03:19:33.870Z,-60
2018-11-01T03:20:34.517Z,-61
2018-11-01T03:21:34.143Z,-60
2018-11-01T03:22:42.236Z,-61
2018-11-01T03:23:42.132Z,-62
2018-11-01T03:24:39.627Z,-61
2018-11-01T03:25:36.878Z,-62
2018-11-01T03:26:36.442Z,-62
2018-11-01T03:27:35.914Z,-62
2018-11-01T03:28:33.887Z,-62
2018-11-01T03:29:32.593Z,-64
2018-11-01T03:30:33.585Z,-62
2018-11-01T03:31:44.347Z,-62
2018-11-01T03:32:41.822Z,-61
2018-11-01T03:33:40.211Z,-61
2018-11-01T03:37:02.752Z,-61
2018-11-01T03:38:04.161Z,-56
2018-11-01T03:39:02.606Z,-57
2018-11-01T03:40:02.057Z,-57
2018-11-01T03:41:01.341Z,-57
2018-11-01T03:42:01.032Z,-57
2018-11-01T03:43:01.487Z,-58
2018-11-01T03:43:58.988Z,-57
2018-11-01T03:45:01.635Z,-57
2018-11-01T03:46:06.451Z,-57
2018-11-01T03:47:05.401Z,-57
2018-11-01T03:48:11.472Z,-57
2018-11-01T03:49:17.094Z,-60
2018-11-01T03:50:19.426Z,-60
2018-11-01T03:51:23.026Z,-61
2018-11-01T03:52:23.621Z,-60
2018-11-01T03:53:21.885Z,-61
2018-11-01T03:54:21.455Z,-61
2018-11-01T03:55:19.356Z,-60
2018-11-01T03:59:07.397Z,-58
2018-11-01T04:01:26.033Z,-59
2018-11-01T04:02:24.675Z,-57
2018-11-01T04:03:28.720Z,-57
2018-11-01T04:04:32.564Z,-57
2018-11-01T04:05:29.806Z,-56
2018-11-01T04:06:28.291Z,-56
2018-11-01T04:07:31.328Z,-56
2018-11-01T04:08:28.877Z,-56
2018-11-01T04:09:26.149Z,-56
2018-11-01T04:10:31.176Z,-56
2018-11-01T04:12:56.395Z,-57
2018-11-01T04:13:58.299Z,-57
2018-11-01T04:15:05.996Z,-58
2018-11-01T04:16:06.610Z,-57
2018-11-01T04:17:07.145Z,-57
2018-11-01T04:18:08.465Z,-57
2018-11-01T04:19:08.507Z,-59
2018-11-01T04:20:06.648Z,-58
2018-11-01T04:21:10.361Z,-60
2018-11-01T04:22:19.411Z,-58
2018-11-01T04:23:20.702Z,-63
2018-11-01T04:24:20.818Z,-64
2018-11-01T04:25:19.724Z,-64
2018-11-01T04:27:38.564Z,-63
2018-11-01T04:28:39.743Z,-62
2018-11-01T04:29:39.071Z,-63
2018-11-01T04:30:36.631Z,-62
2018-11-01T04:31:36.837Z,-62
2018-11-01T04:32:35.943Z,-61
2018-11-01T04:33:36.362Z,-61
2018-11-01T04:35:56.361Z,-58
2018-11-01T04:37:02.996Z,-58
2018-11-01T04:39:19.625Z,-64
2018-11-01T04:40:19.977Z,-64
2018-11-01T04:41:19.051Z,-63
2018-11-01T04:42:20.348Z,-62
2018-11-01T04:43:21.486Z,-62
2018-11-01T04:44:23.112Z,-61
2018-11-01T04:45:21.280Z,-61
2018-11-01T04:46:19.510Z,-62
2018-11-01T04:47:18.996Z,-61
2018-11-01T04:48:16.961Z,-61
2018-11-01T04:49:15.533Z,-60
2018-11-01T04:50:14.230Z,-59
2018-11-01T04:51:12.202Z,-61
2018-11-01T04:52:10.593Z,-58
2018-11-01T04:53:09.084Z,-59
2018-11-01T04:54:08.249Z,-57
2018-11-01T04:55:06.463Z,-58
2018-11-01T04:56:07.149Z,-58
2018-11-01T04:57:07.596Z,-60
2018-11-01T04:58:05.669Z,-59
2018-11-01T04:59:03.625Z,-58
2018-11-01T05:00:03.040Z,-58
2018-11-01T05:01:01.040Z,-58
2018-11-01T05:01:58.377Z,-57
2018-11-01T05:02:57.165Z,-58
2018-11-01T05:03:59.653Z,-58
2018-11-01T05:05:00.565Z,-58
2018-11-01T05:06:03.648Z,-58
2018-11-01T05:07:01.894Z,-58
2018-11-01T05:08:07.700Z,-58
2018-11-01T05:09:07.230Z,-59
2018-11-01T05:12:45.509Z,-57
2018-11-01T05:13:45.429Z,-56
2018-11-01T05:14:45.095Z,-58
2018-11-01T05:17:10.043Z,-61
2018-11-01T05:18:08.967Z,-59
2018-11-01T05:19:12.544Z,-59
2018-11-01T05:20:12.344Z,-61
2018-11-01T05:20:59.834Z,-61
2018-11-01T05:21:59.183Z,-58
2018-11-01T05:23:05.972Z,-59
2018-11-01T05:24:07.906Z,-60
2018-11-01T05:25:10.439Z,-60
2018-11-01T05:26:07.982Z,-61
2018-11-01T05:27:07.072Z,-60
2018-11-01T05:28:07.942Z,-60
2018-11-01T05:29:08.297Z,-61
2018-11-01T05:30:11.826Z,-60
2018-11-01T05:31:11.557Z,-60
2018-11-01T05:32:08.932Z,-60
2018-11-01T05:33:11.732Z,-59
2018-11-01T05:34:12.090Z,-61
2018-11-01T05:35:09.475Z,-61
2018-11-01T05:36:07.102Z,-59
2018-11-01T05:37:14.593Z,-58
2018-11-01T05:38:13.788Z,-61
2018-11-01T05:39:09.149Z,-62
2018-11-01T05:40:09.292Z,-60
2018-11-01T05:42:35.032Z,-61
2018-11-01T05:43:33.175Z,-61
2018-11-01T05:44:33.205Z,-62
2018-11-01T05:45:36.626Z,-61
2018-11-01T05:46:38.860Z,-62
2018-11-01T05:47:38.013Z,-60
2018-11-01T05:48:35.822Z,-60
2018-11-01T05:49:36.928Z,-60
2018-11-01T05:50:39.518Z,-61
2018-11-01T05:51:34.445Z,-59
2018-11-01T05:55:30.630Z,-59
2018-11-01T05:56:27.905Z,-60
2018-11-01T05:57:25.387Z,-59
2018-11-01T05:58:22.799Z,-59
2018-11-01T05:59:29.185Z,-59
2018-11-01T06:00:27.776Z,-58
2018-11-01T06:01:34.253Z,-58
2018-11-01T06:02:33.036Z,-58
2018-11-01T06:03:32.894Z,-57
2018-11-01T06:04:31.317Z,-57
2018-11-01T06:05:35.378Z,-57
2018-11-01T06:06:36.020Z,-57
2018-11-01T06:07:33.999Z,-56
2018-11-01T06:08:35.067Z,-57
2018-11-01T06:09:47.857Z,-56
2018-11-01T06:10:53.331Z,-56
2018-11-01T06:11:54.362Z,-57
2018-11-01T06:12:58.065Z,-56
2018-11-01T06:15:17.350Z,-59
2018-11-01T06:16:19.771Z,-58
2018-11-01T06:18:46.000Z,-60
2018-11-01T06:19:45.007Z,-58
2018-11-01T06:20:45.232Z,-60
2018-11-01T06:23:03.175Z,-61
2018-11-01T06:25:29.250Z,-63
2018-11-01T06:27:52.488Z,-61
2018-11-01T06:31:42.055Z,-61
2018-11-01T06:32:45.799Z,-61
2018-11-01T06:33:44.058Z,-60
2018-11-01T06:34:45.414Z,-60
2018-11-01T06:35:45.047Z,-60
2018-11-01T06:36:42.159Z,-60
2018-11-01T06:37:40.826Z,-59
2018-11-01T06:38:37.805Z,-60
2018-11-01T06:39:37.963Z,-60
2018-11-01T06:40:36.001Z,-60
2018-11-01T06:41:33.030Z,-60
2018-11-01T06:42:31.187Z,-61
2018-11-01T06:43:34.097Z,-63
2018-11-01T06:44:49.839Z,-62
2018-11-01T06:45:48.176Z,-60
2018-11-01T06:46:45.865Z,-60
2018-11-01T06:47:46.318Z,-58
2018-11-01T06:48:50.504Z,-59
2018-11-01T06:49:48.454Z,-57
2018-11-01T06:50:48.648Z,-58
2018-11-01T06:51:47.247Z,-58
2018-11-01T06:52:48.499Z,-59
2018-11-01T06:55:12.798Z,-59
2018-11-01T06:56:11.706Z,-60
2018-11-01T06:58:29.301Z,-58
2018-11-01T06:59:30.363Z,-57
2018-11-01T07:00:28.008Z,-58
2018-11-01T07:01:32.314Z,-57
2018-11-01T07:02:32.499Z,-58
2018-11-01T07:06:28.987Z,-59
2018-11-01T07:07:25.870Z,-56
2018-11-01T07:08:36.296Z,-56
2018-11-01T07:11:00.322Z,-58
2018-11-01T07:12:01.252Z,-57
2018-11-01T07:13:08.028Z,-59
2018-11-01T07:14:07.950Z,-59
2018-11-01T07:15:09.808Z,-58
2018-11-01T07:16:10.875Z,-60
2018-11-01T07:17:12.257Z,-58
2018-11-01T07:18:19.482Z,-60
2018-11-01T07:20:33.847Z,-61
2018-11-01T07:23:00.389Z,-60
2018-11-01T07:23:57.456Z,-60
2018-11-01T07:24:57.074Z,-59
2018-11-01T07:25:54.740Z,-61
2018-11-01T07:26:58.345Z,-61
2018-11-01T07:27:58.302Z,-59
2018-11-01T07:28:57.237Z,-59
2018-11-01T07:29:57.410Z,-60
2018-11-01T07:30:59.325Z,-58
2018-11-01T07:32:02.139Z,-58
2018-11-01T07:33:01.952Z,-58
2018-11-01T07:33:58.215Z,-57
2018-11-01T07:35:01.485Z,-58
2018-11-01T07:36:00.468Z,-57
2018-11-01T07:37:01.425Z,-57
2018-11-01T07:38:03.502Z,-58
2018-11-01T07:39:01.045Z,-59
2018-11-01T07:40:03.551Z,-57
2018-11-01T07:41:12.091Z,-57
2018-11-01T07:42:15.030Z,-63
2018-11-01T07:43:15.594Z,-60
2018-11-01T07:44:12.725Z,-59
2018-11-01T07:45:11.118Z,-58
2018-11-01T07:46:09.623Z,-57
2018-11-01T07:47:06.955Z,-58
2018-11-01T07:48:11.295Z,-57
2018-11-01T07:49:16.085Z,-58
2018-11-01T07:50:13.992Z,-59
2018-11-01T07:51:17.370Z,-57
2018-11-01T07:52:18.119Z,-59
2018-11-01T07:53:16.669Z,-58
2018-11-01T07:54:16.961Z,-58
2018-11-01T07:55:15.792Z,-58
2018-11-01T07:56:16.901Z,-58
2018-11-01T07:57:14.581Z,-58
2018-11-01T07:58:24.970Z,-57
2018-11-01T07:59:24.588Z,-58
2018-11-01T08:00:21.987Z,-58
2018-11-01T08:02:39.341Z,-56
2018-11-01T08:03:37.882Z,-57
2018-11-01T08:04:42.798Z,-56
2018-11-01T08:05:40.727Z,-55
2018-11-01T08:06:39.974Z,-55
2018-11-01T08:07:37.838Z,-56
2018-11-01T08:10:03.352Z,-60
2018-11-01T08:11:08.648Z,-59
2018-11-01T08:12:08.931Z,-60
2018-11-01T08:13:08.134Z,-59
2018-11-01T08:14:08.398Z,-59
2018-11-01T08:15:09.295Z,-60
2018-11-01T08:16:09.610Z,-64
2018-11-01T08:17:09.590Z,-60
2018-11-01T08:18:07.698Z,-59
2018-11-01T08:19:11.894Z,-58
2018-11-01T08:20:13.082Z,-61
2018-11-01T08:21:13.228Z,-59
2018-11-01T08:22:14.106Z,-57
2018-11-01T08:23:19.899Z,-60
2018-11-01T08:24:20.161Z,-60
2018-11-01T08:26:42.067Z,-58
2018-11-01T08:28:56.497Z,-58
2018-11-01T08:29:55.576Z,-57
2018-11-01T08:32:17.444Z,-60
2018-11-01T08:33:17.449Z,-59
2018-11-01T08:34:18.215Z,-59
2018-11-01T08:36:41.320Z,-60
2018-11-01T08:37:40.014Z,-58
2018-11-01T08:38:42.038Z,-61
2018-11-01T08:39:39.970Z,-57
2018-11-01T08:40:38.282Z,-58
2018-11-01T08:41:37.681Z,-57
2018-11-01T08:42:36.919Z,-60
2018-11-01T08:43:37.540Z,-58
2018-11-01T08:45:59.875Z,-60
2018-11-01T08:46:58.513Z,-59
2018-11-01T08:48:00.119Z,-59
2018-11-01T08:48:59.801Z,-58
2018-11-01T08:49:59.220Z,-59
2018-11-01T08:51:01.023Z,-58
2018-11-01T08:51:58.515Z,-58
2018-11-01T08:52:57.660Z,-60
2018-11-01T08:54:01.023Z,-58
2018-11-01T08:55:04.731Z,-59
2018-11-01T08:56:04.309Z,-53
2018-11-01T08:57:04.913Z,-56
2018-11-01T08:59:27.488Z,-58
2018-11-01T09:00:28.687Z,-57
2018-11-01T09:01:27.377Z,-58
2018-11-01T09:02:26.963Z,-56
2018-11-01T09:03:26.580Z,-63
2018-11-01T09:04:23.698Z,-54
2018-11-01T09:05:34.517Z,-62
2018-11-01T09:06:32.378Z,-56
2018-11-01T09:08:54.318Z,-56
2018-11-01T09:09:53.294Z,-55
2018-11-01T09:10:51.246Z,-55
2018-11-01T09:11:48.770Z,-56
2018-11-01T09:14:04.230Z,-55
2018-11-01T09:15:03.462Z,-55
2018-11-01T09:16:01.881Z,-59
2018-11-01T09:17:03.845Z,-59
2018-11-01T09:18:01.606Z,-58
2018-11-01T09:20:24.946Z,-60
2018-11-01T09:21:23.065Z,-60
2018-11-01T09:22:25.114Z,-61
2018-11-01T09:23:23.936Z,-62
2018-11-01T09:24:24.286Z,-63
2018-11-01T09:25:24.322Z,-63
2018-11-01T09:26:26.965Z,-63
2018-11-01T09:27:24.548Z,-64
2018-11-01T09:28:18.979Z,-62
2018-11-01T09:29:19.837Z,-64
2018-11-01T09:30:14.829Z,-62
2018-11-01T09:31:18.769Z,-60
2018-11-01T09:32:16.462Z,-60
2018-11-01T09:33:14.303Z,-59
2018-11-01T09:35:30.621Z,-62
2018-11-01T09:36:31.623Z,-62
2018-11-01T09:37:30.108Z,-59
2018-11-01T09:39:46.506Z,-57
2018-11-01T09:40:44.290Z,-58
2018-11-01T09:41:50.842Z,-59
2018-11-01T09:42:48.544Z,-61
2018-11-01T09:43:53.377Z,-58
2018-11-01T09:44:51.011Z,-59
2018-11-01T09:45:50.276Z,-57
2018-11-01T09:48:07.456Z,-56
2018-11-01T09:49:07.167Z,-56
2018-11-01T09:50:12.003Z,-56
2018-11-01T09:51:11.086Z,-58
2018-11-01T09:52:08.705Z,-56
2018-11-01T09:53:07.707Z,-48
2018-11-01T09:55:29.443Z,-57
2018-11-01T09:56:29.897Z,-57
2018-11-01T09:57:31.387Z,-57
2018-11-01T09:58:31.154Z,-56
2018-11-01T09:59:29.010Z,-67
2018-11-01T10:00:30.025Z,-66
2018-11-01T10:01:41.399Z,-59
2018-11-01T10:02:39.405Z,-61
2018-11-01T10:03:37.450Z,-68
2018-11-01T10:04:38.304Z,-66
2018-11-01T10:07:00.647Z,-68
2018-11-01T10:08:01.397Z,-67
2018-11-01T10:08:59.496Z,-68
2018-11-01T10:09:59.629Z,-65
2018-11-01T10:10:57.322Z,-61
2018-11-01T10:11:59.268Z,-62
2018-11-01T10:13:00.546Z,-62
2018-11-01T10:13:55.785Z,-62
2018-11-01T10:14:59.464Z,-65
2018-11-01T10:15:57.027Z,-67
2018-11-01T10:16:56.701Z,-61
2018-11-01T10:17:57.914Z,-64
2018-11-01T10:18:58.934Z,-64
2018-11-01T10:20:02.593Z,-65
2018-11-01T10:21:00.594Z,-64
2018-11-01T10:22:04.305Z,-66
2018-11-01T10:23:03.171Z,-64
2018-11-01T10:24:05.655Z,-61
2018-11-01T10:25:04.492Z,-63
2018-11-01T10:26:02.663Z,-64
2018-11-01T10:27:00.968Z,-62
2018-11-01T10:28:03.253Z,-63
2018-11-01T10:29:01.060Z,-63
2018-11-01T10:30:01.175Z,-63
2018-11-01T10:31:01.571Z,-64
2018-11-01T10:32:01.427Z,-62
2018-11-01T10:33:06.355Z,-61
2018-11-01T10:34:06.823Z,-63
2018-11-01T10:35:04.477Z,-63
2018-11-01T10:36:05.266Z,-62
2018-11-01T10:38:21.860Z,-70
2018-11-01T10:39:21.365Z,-67
2018-11-01T10:40:19.106Z,-62
2018-11-01T10:44:32.864Z,-68
2018-11-01T10:46:52.270Z,-70
2018-11-01T10:47:51.953Z,-73
2018-11-01T10:48:50.651Z,-70
2018-11-01T10:49:47.395Z,-69
2018-11-01T10:53:27.910Z,-66
2018-11-01T10:54:28.668Z,-63
2018-11-01T10:55:31.042Z,-62
2018-11-01T10:56:29.982Z,-62
2018-11-01T10:57:28.168Z,-64
2018-11-01T10:58:26.979Z,-64
2018-11-01T10:59:28.026Z,-63
2018-11-01T11:00:31.294Z,-64
2018-11-01T11:01:29.864Z,-64
2018-11-01T11:02:35.752Z,-64
2018-11-01T11:03:36.819Z,-61
2018-11-01T11:04:36.561Z,-61
2018-11-01T11:05:34.739Z,-68
2018-11-01T11:06:32.804Z,-61
2018-11-01T11:07:30.999Z,-62
2018-11-01T11:08:37.628Z,-60
2018-11-01T11:09:35.556Z,-62
2018-11-01T11:10:33.642Z,-62
2018-11-01T11:11:37.643Z,-62
2018-11-01T11:12:39.214Z,-62
2018-11-01T11:15:03.359Z,-63
2018-11-01T11:16:00.909Z,-64
2018-11-01T11:16:58.820Z,-60
2018-11-01T11:18:00.832Z,-64
2018-11-01T11:18:58.088Z,-65
2018-11-01T11:20:00.268Z,-61
2018-11-01T11:20:59.876Z,-61
2018-11-01T11:22:00.888Z,-65
2018-11-01T11:22:56.843Z,-67
2018-11-01T11:23:54.459Z,-61
2018-11-01T11:26:14.783Z,-69
2018-11-01T11:27:13.115Z,-63
2018-11-01T11:29:35.219Z,-68
2018-11-01T11:32:01.198Z,-65
2018-11-01T11:33:01.323Z,-64
2018-11-01T11:33:58.796Z,-59
2018-11-01T11:34:56.775Z,-67
2018-11-01T11:35:55.610Z,-66
2018-11-01T11:36:52.664Z,-68
2018-11-01T11:37:52.166Z,-67
2018-11-01T11:38:51.729Z,-68
2018-11-01T11:39:52.110Z,-71
2018-11-01T11:40:49.116Z,-70
2018-11-01T11:41:48.823Z,-69
2018-11-01T11:44:23.623Z,-65
2018-11-01T11:45:22.372Z,-56
2018-11-01T11:46:23.832Z,-68
2018-11-01T11:47:22.916Z,-61
2018-11-01T11:48:21.377Z,-59
2018-11-01T11:49:21.797Z,-61
2018-11-01T11:50:21.753Z,-59
2018-11-01T11:51:21.392Z,-59
2018-11-01T11:52:21.518Z,-60
2018-11-01T11:53:20.713Z,-60
2018-11-01T11:54:21.401Z,-59
2018-11-01T11:55:19.583Z,-59
2018-11-01T11:56:17.591Z,-60
2018-11-01T11:59:26.942Z,-59
2018-11-01T12:00:17.779Z,-58
2018-11-01T12:01:17.605Z,-55
2018-11-01T12:02:16.034Z,-58
2018-11-01T12:03:16.359Z,-57
2018-11-01T12:04:17.560Z,-58
2018-11-01T12:05:23.000Z,-59
2018-11-01T12:06:26.199Z,-61
2018-11-01T12:07:25.478Z,-58
2018-11-01T12:08:27.670Z,-58
2018-11-01T12:09:27.870Z,-58
2018-11-01T12:10:27.886Z,-62
2018-11-01T12:11:27.776Z,-60
2018-11-01T12:12:25.796Z,-59
2018-11-01T12:13:25.097Z,-60
2018-11-01T12:14:24.188Z,-60
2018-11-01T12:15:24.342Z,-59
2018-11-01T12:17:40.679Z,-58
2018-11-01T12:19:58.576Z,-62
2018-11-01T12:20:56.435Z,-61
2018-11-01T12:23:26.118Z,-62
2018-11-01T12:24:26.621Z,-62
2018-11-01T12:25:29.621Z,-62
2018-11-01T12:26:30.037Z,-61
2018-11-01T12:27:31.118Z,-61
2018-11-01T12:28:25.976Z,-61
2018-11-01T12:29:27.962Z,-62
2018-11-01T12:30:25.257Z,-62
2018-11-01T12:32:54.466Z,-60
2018-11-01T12:35:13.824Z,-61
2018-11-01T12:37:48.076Z,-59
2018-11-01T12:40:08.461Z,-60
2018-11-01T12:41:07.990Z,-58
2018-11-01T12:42:10.029Z,-58
2018-11-01T12:43:11.330Z,-59
2018-11-01T12:44:10.680Z,-58
2018-11-01T12:45:16.176Z,-60
2018-11-01T12:47:39.315Z,-60
2018-11-01T12:48:39.519Z,-58
2018-11-01T12:49:44.625Z,-58
2018-11-01T12:50:43.695Z,-58
2018-11-01T12:51:43.157Z,-59
2018-11-01T12:52:42.544Z,-59
2018-11-01T12:53:42.866Z,-59
2018-11-01T12:54:44.034Z,-60
2018-11-01T12:55:41.762Z,-59
2018-11-01T12:56:42.934Z,-60
2018-11-01T12:57:40.724Z,-61
2018-11-01T12:58:39.339Z,-58
2018-11-01T12:59:38.087Z,-63
2018-11-01T13:00:35.338Z,-59
2018-11-01T13:01:39.575Z,-63
2018-11-01T13:02:37.948Z,-59
2018-11-01T13:05:01.643Z,-59
2018-11-01T13:06:00.265Z,-60
2018-11-01T13:06:57.863Z,-60
2018-11-01T13:07:58.202Z,-59
2018-11-01T13:09:00.106Z,-60
2018-11-01T13:09:58.482Z,-60
2018-11-01T13:10:57.717Z,-60
2018-11-01T13:11:56.120Z,-61
2018-11-01T13:12:54.191Z,-61
2018-11-01T13:13:51.615Z,-60
2018-11-01T13:14:51.580Z,-60
2018-11-01T13:17:16.670Z,-61
2018-11-01T13:19:33.859Z,-62
2018-11-01T13:20:33.618Z,-61
2018-11-01T13:21:31.724Z,-61
2018-11-01T13:28:18.642Z,-63
2018-11-01T13:29:16.349Z,-61
2018-11-01T13:30:15.224Z,-60
2018-11-01T13:31:15.540Z,-61
2018-11-01T13:32:13.823Z,-61
2018-11-01T13:33:12.630Z,-62
2018-11-01T13:34:10.916Z,-62
2018-11-01T13:35:10.208Z,-60
2018-11-01T13:36:12.037Z,-58
2018-11-01T13:37:12.289Z,-62
2018-11-01T13:38:11.702Z,-57
2018-11-01T13:39:11.489Z,-54
2018-11-01T13:40:08.675Z,-55
2018-11-01T13:41:07.146Z,-60
2018-11-01T13:42:16.369Z,-56
2018-11-01T13:43:12.748Z,-61
2018-11-01T13:44:16.003Z,-60
2018-11-01T13:45:12.868Z,-56
2018-11-01T13:46:20.083Z,-56
2018-11-01T13:52:16.804Z,-57
2018-11-01T13:54:35.825Z,-61
2018-11-01T13:55:37.447Z,-58
2018-11-01T13:56:38.140Z,-63
2018-11-01T13:57:36.797Z,-60
2018-11-01T13:58:38.763Z,-56
2018-11-01T13:59:36.491Z,-58
2018-11-01T14:01:55.185Z,-60
2018-11-01T14:02:52.872Z,-58
2018-11-01T14:03:50.862Z,-55
2018-11-01T14:04:52.517Z,-56
2018-11-01T14:05:49.996Z,-58
2018-11-01T14:06:51.688Z,-58
2018-11-01T14:07:49.812Z,-54
2018-11-01T14:08:47.713Z,-56
2018-11-01T14:09:54.034Z,-54
2018-11-01T14:12:14.684Z,-60
2018-11-01T14:17:18.073Z,-58
2018-11-01T14:18:21.674Z,-55
2018-11-01T14:19:21.875Z,-57
2018-11-01T14:20:21.468Z,-60
2018-11-01T14:21:21.315Z,-55
2018-11-01T14:29:13.105Z,-58
2018-11-01T14:30:14.182Z,-62
2018-11-01T14:31:13.817Z,-61
2018-11-01T14:32:15.903Z,-62
2018-11-01T14:33:14.391Z,-64
2018-11-01T14:34:20.179Z,-62
2018-11-01T14:35:18.910Z,-64
2018-11-01T14:36:20.283Z,-64
2018-11-01T14:37:18.963Z,-66
2018-11-01T14:38:24.752Z,-60
2018-11-01T14:39:25.786Z,-59
2018-11-01T14:40:30.117Z,-56
2018-11-01T14:41:29.596Z,-56
2018-11-01T14:42:29.788Z,-52
2018-11-01T14:43:28.750Z,-56
2018-11-01T14:44:30.997Z,-56
2018-11-01T14:45:32.681Z,-54
2018-11-01T14:46:34.068Z,-55
2018-11-01T14:47:33.284Z,-56
2018-11-01T14:48:34.491Z,-56
2018-11-01T14:49:41.081Z,-59
2018-11-01T14:50:40.059Z,-58
2018-11-01T14:51:42.183Z,-63
2018-11-01T14:52:41.413Z,-59
2018-11-01T14:53:40.969Z,-55
2018-11-01T14:54:45.614Z,-54
2018-11-01T14:55:49.836Z,-55
2018-11-01T14:56:49.447Z,-55
2018-11-01T14:57:50.076Z,-56
2018-11-01T14:58:53.621Z,-53
2018-11-01T14:59:55.443Z,-54
2018-11-01T15:00:55.863Z,-56
2018-11-01T15:01:54.756Z,-57
2018-11-01T15:02:57.938Z,-65
2018-11-01T15:03:59.979Z,-62
2018-11-01T15:05:00.278Z,-62
2018-11-01T15:06:01.797Z,-60
2018-11-01T15:07:03.615Z,-61
2018-11-01T15:08:02.554Z,-66
2018-11-01T15:09:04.434Z,-66
2018-11-01T15:10:03.753Z,-63
2018-11-01T15:11:03.152Z,-68
2018-11-01T15:12:04.375Z,-61
2018-11-01T15:13:10.578Z,-65
2018-11-01T15:14:11.287Z,-61
2018-11-01T15:15:11.382Z,-59
2018-11-01T15:16:14.737Z,-61
2018-11-01T15:17:15.014Z,-61
2018-11-01T15:18:17.371Z,-61
2018-11-01T15:19:18.628Z,-61
2018-11-01T15:20:32.101Z,-58
2018-11-01T15:21:33.266Z,-60
2018-11-01T15:22:35.154Z,-57
2018-11-01T15:23:34.470Z,-63
2018-11-01T15:24:34.775Z,-66
2018-11-01T15:25:33.923Z,-74
2018-11-01T15:26:33.862Z,-72
2018-11-01T15:27:35.068Z,-67
2018-11-01T15:28:36.416Z,-61
2018-11-01T15:29:36.971Z,-66
2018-11-01T15:30:40.435Z,-64
2018-11-01T15:31:41.423Z,-67
2018-11-01T15:32:41.281Z,-60
2018-11-01T15:33:42.259Z,-69
2018-11-01T15:34:44.896Z,-61
2018-11-01T15:35:47.994Z,-73
2018-11-01T15:36:48.229Z,-63
2018-11-01T15:37:49.218Z,-70
2018-11-01T15:38:50.636Z,-68
2018-11-01T15:39:55.641Z,-62
2018-11-01T15:40:58.435Z,-62
2018-11-01T15:41:58.901Z,-62
2018-11-01T15:42:59.560Z,-62
2018-11-01T15:43:58.938Z,-64
2018-11-01T15:44:58.227Z,-61
2018-11-01T15:45:58.653Z,-64
2018-11-01T15:46:58.220Z,-72
2018-11-01T15:48:06.969Z,-73
2018-11-01T15:49:10.205Z,-70
2018-11-01T15:50:15.330Z,-74
2018-11-01T15:51:15.419Z,-64
2018-11-01T15:52:18.522Z,-56
2018-11-01T15:53:23.466Z,-62
2018-11-01T15:54:33.947Z,-61
2018-11-01T15:55:35.805Z,-63
2018-11-01T15:56:35.185Z,-64
2018-11-01T15:57:41.387Z,-56
2018-11-01T15:58:44.620Z,-57
2018-11-01T15:59:46.411Z,-60
2018-11-01T16:00:46.070Z,-60
2018-11-01T16:01:45.434Z,-60
2018-11-01T16:02:45.240Z,-61
2018-11-01T16:03:44.653Z,-66
2018-11-01T16:04:44.221Z,-64
2018-11-01T16:05:44.711Z,-68
2018-11-01T16:06:44.250Z,-60
2018-11-01T16:07:47.880Z,-59
2018-11-01T16:08:50.384Z,-59
2018-11-01T16:09:56.333Z,-60
2018-11-01T16:11:04.482Z,-67
2018-11-01T16:12:06.436Z,-61
2018-11-01T16:13:10.279Z,-74
2018-11-01T16:14:14.464Z,-58
2018-11-01T16:15:15.902Z,-56
2018-11-01T16:16:12.838Z,-56
2018-11-01T16:17:18.420Z,-58
2018-11-01T16:18:20.070Z,-64
2018-11-01T16:19:27.374Z,-59
2018-11-01T16:20:27.100Z,-60
2018-11-01T16:21:28.802Z,-60
2018-11-01T16:22:32.127Z,-55
2018-11-01T16:23:35.315Z,-62
2018-11-01T16:24:35.945Z,-59
2018-11-01T16:25:40.881Z,-64
2018-11-01T16:26:40.126Z,-63